createdAt,value
2022-09-02T00:01:00.991Z,14.40
2022-09-02T00:04:05.577Z,14.40
2022-09-02T00:07:07.440Z,16.70
2022-09-02T00:10:09.564Z,16.40
2022-09-02T00:13:14.851Z,17.40
2022-09-02T00:16:17.503Z,14.90
2022-09-02T00:19:24.590Z,13.60
2022-09-02T00:22:26.628Z,14.10
2022-09-02T00:25:28.355Z,16.00
2022-09-02T00:28:31.012Z,15.40
2022-09-02T00:31:33.960Z,16.00
2022-09-02T00:34:35.715Z,13.00
2022-09-02T00:37:38.772Z,22.20
2022-09-02T00:40:45.719Z,14.40
2022-09-02T00:43:59.978Z,16.20
2022-09-02T00:47:02.026Z,16.10
2022-09-02T00:50:08.462Z,20.00
2022-09-02T00:53:11.758Z,15.70
2022-09-02T00:56:20.212Z,16.00
2022-09-02T01:00:09.040Z,11.60
2022-09-02T01:03:13.960Z,13.90
2022-09-02T01:06:21.977Z,14.10
2022-09-02T01:09:23.820Z,13.70
2022-09-02T01:12:26.581Z,11.50
2022-09-02T01:15:31.294Z,15.90
2022-09-02T01:18:33.312Z,16.30
2022-09-02T01:21:35.125Z,15.60
2022-09-02T01:24:36.822Z,16.20
2022-09-02T01:27:39.021Z,22.80
2022-09-02T01:30:44.759Z,18.90
2022-09-02T01:33:46.643Z,23.80
2022-09-02T01:36:49.238Z,15.30
2022-09-02T01:39:52.517Z,15.20
2022-09-02T01:43:01.209Z,12.10
2022-09-02T01:46:03.190Z,13.60
2022-09-02T01:49:05.102Z,5.30
2022-09-02T01:52:07.497Z,8.40
2022-09-02T01:55:09.583Z,14.10
2022-09-02T01:58:11.617Z,18.20
2022-09-02T02:01:13.657Z,9.70
2022-09-02T02:04:16.826Z,14.40
2022-09-02T02:07:20.052Z,10.50
2022-09-02T02:10:22.048Z,15.00
2022-09-02T02:13:23.972Z,14.40
2022-09-02T02:16:25.949Z,15.30
2022-09-02T02:19:28.185Z,8.30
2022-09-02T02:22:29.856Z,20.10
2022-09-02T02:31:35.588Z,9.80
2022-09-02T02:34:37.713Z,15.00
2022-09-02T02:37:39.693Z,15.00
2022-09-02T02:40:41.928Z,18.10
2022-09-02T02:43:43.971Z,16.30
2022-09-02T02:46:45.765Z,14.50
2022-09-02T02:49:47.708Z,14.90
2022-09-02T02:52:50.447Z,28.20
2022-09-02T02:55:52.212Z,15.50
2022-09-02T03:01:56.047Z,13.30
2022-09-02T03:04:58.123Z,17.30
2022-09-02T03:07:59.994Z,15.90
2022-09-02T03:11:01.973Z,11.90
2022-09-02T03:14:05.230Z,28.40
2022-09-02T03:17:07.197Z,13.70
2022-09-02T03:20:09.428Z,11.20
2022-09-02T03:23:13.271Z,15.30
2022-09-02T03:26:19.967Z,15.70
2022-09-02T03:29:22.186Z,13.00
2022-09-02T03:32:24.125Z,16.90
2022-09-02T03:35:30.977Z,15.90
2022-09-02T03:38:32.952Z,18.20
2022-09-02T03:41:35.411Z,17.10
2022-09-02T03:44:37.182Z,16.80
2022-09-02T03:47:44.125Z,14.90
2022-09-02T03:50:47.455Z,18.20
2022-09-02T03:53:49.761Z,14.10
2022-09-02T03:56:51.997Z,16.10
2022-09-02T03:59:54.425Z,13.30
2022-09-02T04:02:56.369Z,12.60
2022-09-02T04:05:58.589Z,15.80
2022-09-02T04:09:01.127Z,13.40
2022-09-02T04:12:05.246Z,13.80
2022-09-02T04:15:08.820Z,14.30
2022-09-02T04:18:11.964Z,15.00
2022-09-02T04:21:14.254Z,13.10
2022-09-02T04:24:16.092Z,15.20
2022-09-02T04:27:17.937Z,15.00
2022-09-02T04:30:20.470Z,13.30
2022-09-02T04:33:22.333Z,12.90
2022-09-02T04:36:25.192Z,15.60
2022-09-02T04:39:30.867Z,15.70
2022-09-02T04:42:34.253Z,17.40
2022-09-02T04:45:38.981Z,15.10
2022-09-02T04:48:44.878Z,13.50
2022-09-02T04:51:47.354Z,14.20
2022-09-02T04:54:49.147Z,20.30
2022-09-02T04:57:51.155Z,15.10
2022-09-02T05:00:52.874Z,17.30
2022-09-02T05:03:55.130Z,15.40
2022-09-02T05:06:58.304Z,16.70
2022-09-02T05:10:00.397Z,16.40
2022-09-02T05:13:02.190Z,17.30
2022-09-02T05:16:04.005Z,18.30
2022-09-02T05:19:09.706Z,17.60
2022-09-02T05:22:11.691Z,16.10
2022-09-02T05:25:13.483Z,14.80
2022-09-02T05:28:16.662Z,15.40
2022-09-02T05:31:21.024Z,15.70
2022-09-02T05:34:23.078Z,17.70
2022-09-02T05:37:25.436Z,16.60
2022-09-02T05:40:28.880Z,15.10
2022-09-02T05:43:30.896Z,20.60
2022-09-02T05:46:32.887Z,13.90
2022-09-02T05:49:34.823Z,15.50
2022-09-02T05:52:36.715Z,15.60
2022-09-02T05:55:38.597Z,14.20
2022-09-02T05:58:40.422Z,17.10
2022-09-02T06:01:42.847Z,12.00
2022-09-02T06:04:48.475Z,16.50
2022-09-02T06:07:50.249Z,12.60
2022-09-02T06:10:51.939Z,12.10
2022-09-02T06:13:55.013Z,12.70
2022-09-02T06:16:57.738Z,17.10
2022-09-02T06:19:59.598Z,17.20
2022-09-02T06:23:01.555Z,16.10
2022-09-02T06:26:03.290Z,12.80
2022-09-02T06:29:05.990Z,14.10
2022-09-02T06:32:07.812Z,15.10
2022-09-02T06:35:10.879Z,14.50
2022-09-02T06:38:14.420Z,16.40
2022-09-02T06:41:23.467Z,17.00
2022-09-02T06:44:25.161Z,14.00
2022-09-02T06:47:27.030Z,14.70
2022-09-02T06:50:28.797Z,15.90
2022-09-02T06:53:30.687Z,16.80
2022-09-02T06:56:33.541Z,15.40
2022-09-02T06:59:36.584Z,13.30
2022-09-02T07:02:38.658Z,18.90
2022-09-02T07:05:40.683Z,16.60
2022-09-02T07:08:43.448Z,14.90
2022-09-02T07:11:48.755Z,14.10
2022-09-02T07:14:50.990Z,13.70
2022-09-02T07:17:54.203Z,14.00
2022-09-02T07:20:56.356Z,16.10
2022-09-02T07:23:59.665Z,17.30
2022-09-02T07:27:01.554Z,15.60
2022-09-02T07:30:05.193Z,11.30
2022-09-02T07:33:07.168Z,13.10
2022-09-02T07:36:12.601Z,11.50
2022-09-02T07:39:16.046Z,14.70
2022-09-02T07:42:19.656Z,14.40
2022-09-02T07:45:21.968Z,12.40
2022-09-02T07:48:24.490Z,9.40
2022-09-02T07:51:31.044Z,14.40
2022-09-02T07:54:35.025Z,11.40
2022-09-02T07:57:37.165Z,13.80
2022-09-02T08:00:39.068Z,9.70
2022-09-02T08:03:44.365Z,10.40
2022-09-02T08:06:46.569Z,8.80
2022-09-02T08:09:48.487Z,7.90
2022-09-02T08:12:51.415Z,8.10
2022-09-02T08:15:54.454Z,11.70
2022-09-02T08:18:56.220Z,9.80
2022-09-02T08:22:08.688Z,15.20
2022-09-02T08:25:11.254Z,10.20
2022-09-02T08:28:14.813Z,9.60
2022-09-02T08:31:16.746Z,6.70
2022-09-02T08:34:18.687Z,10.20
2022-09-02T08:37:20.354Z,10.40
2022-09-02T08:40:25.669Z,13.70
2022-09-02T08:43:40.570Z,10.60
2022-09-02T08:46:42.839Z,13.00
2022-09-02T08:49:48.688Z,8.90
2022-09-02T08:53:16.306Z,15.30
2022-09-02T08:56:19.205Z,10.00
2022-09-02T08:59:23.212Z,15.20
2022-09-02T09:02:47.278Z,8.40
2022-09-02T09:06:01.738Z,15.30
2022-09-02T09:09:31.899Z,8.70
2022-09-02T09:16:04.343Z,10.70
2022-09-02T09:19:18.076Z,15.40
2022-09-02T09:22:22.440Z,12.80
2022-09-02T09:25:29.783Z,8.70
2022-09-02T09:28:31.784Z,6.40
2022-09-02T09:31:35.750Z,9.50
2022-09-02T09:34:53.086Z,8.00
2022-09-02T09:37:55.972Z,7.00
2022-09-02T09:41:14.299Z,7.40
2022-09-02T09:44:34.051Z,5.40
2022-09-02T09:47:35.706Z,8.40
2022-09-02T09:50:38.088Z,6.60
2022-09-02T09:53:40.720Z,5.80
2022-09-02T09:56:42.560Z,7.30
2022-09-02T09:59:47.749Z,8.50
2022-09-02T10:02:52.369Z,4.60
2022-09-02T10:05:57.076Z,7.30
2022-09-02T10:09:04.961Z,8.30
2022-09-02T10:12:12.492Z,6.00
2022-09-02T10:15:14.330Z,5.70
2022-09-02T10:18:37.967Z,4.50
2022-09-02T10:22:07.734Z,5.80
2022-09-02T10:25:25.754Z,4.20
2022-09-02T10:28:31.077Z,6.80
2022-09-02T10:32:06.988Z,6.80
2022-09-02T10:35:27.613Z,3.30
2022-09-02T10:38:37.438Z,7.20
2022-09-02T10:45:25.106Z,6.50
2022-09-02T10:48:54.623Z,5.70
2022-09-02T10:52:33.171Z,5.70
2022-09-02T10:55:59.652Z,5.50
2022-09-02T10:59:10.754Z,5.70
2022-09-02T11:02:23.804Z,6.00
2022-09-02T11:05:35.242Z,5.00
2022-09-02T11:08:50.947Z,3.80
2022-09-02T11:12:04.517Z,4.00
2022-09-02T11:15:18.002Z,5.40
2022-09-02T11:18:26.729Z,6.70
2022-09-02T11:21:37.376Z,10.90
2022-09-02T11:24:50.000Z,7.10
2022-09-02T11:28:26.185Z,7.40
2022-09-02T11:31:50.169Z,9.60
2022-09-02T11:34:55.282Z,6.70
2022-09-02T11:38:03.645Z,7.50
2022-09-02T11:41:36.654Z,7.10
2022-09-02T11:45:02.632Z,8.50
2022-09-02T11:48:10.129Z,7.70
2022-09-02T11:51:39.664Z,8.90
2022-09-02T11:54:43.992Z,9.60
2022-09-02T11:57:54.945Z,6.90
2022-09-02T12:00:58.446Z,13.60
2022-09-02T12:04:48.415Z,6.50
2022-09-02T12:07:29.738Z,6.30
2022-09-02T12:10:47.820Z,9.00
2022-09-02T12:17:09.160Z,9.90
2022-09-02T12:20:31.344Z,6.30
2022-09-02T12:23:52.682Z,7.30
2022-09-02T12:26:54.437Z,5.60
2022-09-02T12:29:57.124Z,7.40
2022-09-02T12:33:13.541Z,8.10
2022-09-02T12:36:37.459Z,5.70
2022-09-02T12:39:39.090Z,9.80
2022-09-02T12:42:41.949Z,6.60
2022-09-02T12:45:48.545Z,7.80
2022-09-02T12:49:01.233Z,4.50
2022-09-02T12:52:06.870Z,9.40
2022-09-02T12:55:29.630Z,5.80
2022-09-02T12:58:46.391Z,7.50
2022-09-02T13:05:29.718Z,7.60
2022-09-02T13:08:46.675Z,7.90
2022-09-02T13:12:09.798Z,6.00
2022-09-02T13:15:23.820Z,8.20
2022-09-02T13:18:44.472Z,6.50
2022-09-02T13:21:48.393Z,7.10
2022-09-02T13:25:18.976Z,5.60
2022-09-02T13:28:45.329Z,5.10
2022-09-02T13:32:01.190Z,4.80
2022-09-02T13:35:06.297Z,3.90
2022-09-02T13:41:32.742Z,5.00
2022-09-02T13:44:35.028Z,7.90
2022-09-02T13:47:37.234Z,8.40
2022-09-02T13:50:43.694Z,4.30
2022-09-02T13:57:12.503Z,6.50
2022-09-02T14:00:17.407Z,10.20
2022-09-02T14:03:22.438Z,7.60
2022-09-02T14:06:36.636Z,12.40
2022-09-02T14:09:39.494Z,10.60
2022-09-02T14:12:42.259Z,7.70
2022-09-02T14:15:44.310Z,10.20
2022-09-02T14:19:14.565Z,6.60
2022-09-02T14:22:26.199Z,6.10
2022-09-02T14:25:32.541Z,5.20
2022-09-02T14:28:35.570Z,10.60
2022-09-02T14:31:38.304Z,8.90
2022-09-02T14:34:42.776Z,9.20
2022-09-02T14:37:52.217Z,7.50
2022-09-02T14:41:05.738Z,9.00
2022-09-02T14:44:13.631Z,11.90
2022-09-02T14:47:17.025Z,6.40
2022-09-02T14:50:26.078Z,5.70
2022-09-02T14:53:27.853Z,4.50
2022-09-02T14:56:45.372Z,4.50
2022-09-02T14:59:48.722Z,7.00
2022-09-02T15:02:56.506Z,7.90
2022-09-02T15:05:58.273Z,7.70
2022-09-02T15:09:00.095Z,8.50
2022-09-02T15:12:02.908Z,4.60
2022-09-02T15:15:05.310Z,6.60
2022-09-02T15:18:09.236Z,6.10
2022-09-02T15:21:11.416Z,6.60
2022-09-02T15:24:13.301Z,6.50
2022-09-02T15:27:15.767Z,9.40
2022-09-02T15:30:20.777Z,8.60
2022-09-02T15:33:22.743Z,6.80
2022-09-02T15:36:26.303Z,8.00
2022-09-02T15:39:28.441Z,6.70
2022-09-02T15:42:30.416Z,4.90
2022-09-02T15:45:32.168Z,6.20
2022-09-02T15:48:33.929Z,7.90
2022-09-02T15:51:36.408Z,4.30
2022-09-02T15:54:38.204Z,6.10
2022-09-02T15:57:41.282Z,6.40
2022-09-02T16:00:43.833Z,3.60
2022-09-02T16:03:45.980Z,7.60
2022-09-02T16:06:49.231Z,6.30
2022-09-02T16:09:50.953Z,8.00
2022-09-02T16:12:52.707Z,11.20
2022-09-02T16:16:01.084Z,4.70
2022-09-02T16:19:05.298Z,5.40
2022-09-02T16:22:07.010Z,8.20
2022-09-02T16:25:09.284Z,7.50
2022-09-02T16:28:12.588Z,5.60
2022-09-02T16:31:20.149Z,5.60
2022-09-02T16:34:22.509Z,6.90
2022-09-02T16:37:24.257Z,8.00
2022-09-02T16:40:26.145Z,7.60
2022-09-02T16:43:28.024Z,7.50
2022-09-02T16:46:30.340Z,9.10
2022-09-02T16:49:32.168Z,6.00
2022-09-02T16:52:35.253Z,10.80
2022-09-02T16:55:41.766Z,9.20
2022-09-02T16:58:43.766Z,9.90
2022-09-02T17:01:45.489Z,10.40
2022-09-02T17:04:47.421Z,7.00
2022-09-02T17:07:49.205Z,8.90
2022-09-02T17:10:51.058Z,6.60
2022-09-02T17:14:01.994Z,9.60
2022-09-02T17:17:03.839Z,11.30
2022-09-02T17:20:06.360Z,9.60
2022-09-02T17:23:08.768Z,14.70
2022-09-02T17:26:10.879Z,11.80
2022-09-02T17:29:47.042Z,13.30
2022-09-02T17:32:40.739Z,22.90
2022-09-02T17:35:42.497Z,24.30
2022-09-02T17:38:45.137Z,22.80
2022-09-02T17:41:57.584Z,24.20
2022-09-02T17:44:59.485Z,22.80
2022-09-02T17:48:19.261Z,26.30
2022-09-02T17:51:24.321Z,26.00
2022-09-02T17:54:30.715Z,31.70
2022-09-02T17:58:09.775Z,29.30
2022-09-02T18:01:19.333Z,29.40
2022-09-02T18:04:43.133Z,30.80
2022-09-02T18:07:50.952Z,26.10
2022-09-02T18:10:58.125Z,21.40
2022-09-02T18:14:03.034Z,19.00
2022-09-02T18:17:27.792Z,19.40
2022-09-02T18:20:43.540Z,16.80
2022-09-02T18:24:14.581Z,16.30
2022-09-02T18:27:30.494Z,16.90
2022-09-02T18:30:49.120Z,14.90
2022-09-02T18:34:05.934Z,17.60
2022-09-02T18:37:45.065Z,15.30
2022-09-02T18:41:13.671Z,15.20
2022-09-02T18:44:43.334Z,14.30
2022-09-02T18:47:49.875Z,13.40
2022-09-02T18:50:57.606Z,15.00
2022-09-02T18:54:04.886Z,14.80
2022-09-02T18:57:07.821Z,17.20
2022-09-02T19:00:12.720Z,12.30
2022-09-02T19:03:14.503Z,14.20
2022-09-02T19:06:19.878Z,16.10
2022-09-02T19:09:24.585Z,16.90
2022-09-02T19:12:31.860Z,11.80
2022-09-02T19:15:33.559Z,14.10
2022-09-02T19:18:38.635Z,14.80
2022-09-02T19:21:48.673Z,12.70
2022-09-02T19:24:58.099Z,12.30
2022-09-02T19:28:02.650Z,12.80
2022-09-02T19:31:04.713Z,10.20
2022-09-02T19:34:08.306Z,11.60
2022-09-02T19:37:12.298Z,11.90
2022-09-02T19:40:18.990Z,10.70
2022-09-02T19:43:21.644Z,14.20
2022-09-02T19:46:57.875Z,11.70
2022-09-02T19:49:45.290Z,10.90
2022-09-02T19:52:49.484Z,12.50
2022-09-02T19:55:51.234Z,11.50
2022-09-02T19:58:52.924Z,12.00
2022-09-02T20:01:54.744Z,12.50
2022-09-02T20:04:56.538Z,9.90
2022-09-02T20:07:58.546Z,11.00
2022-09-02T20:11:02.942Z,9.20
2022-09-02T20:14:04.720Z,8.30
2022-09-02T20:17:11.279Z,9.10
2022-09-02T20:20:17.283Z,12.30
2022-09-02T20:23:20.886Z,9.20
2022-09-02T20:26:31.184Z,15.80
2022-09-02T20:30:00.462Z,12.60
2022-09-02T20:33:22.540Z,7.60
2022-09-02T20:36:29.814Z,11.30
2022-09-02T20:39:51.200Z,11.20
2022-09-02T20:46:11.318Z,11.00
2022-09-02T20:49:35.937Z,11.20
2022-09-02T20:53:03.638Z,18.10
2022-09-02T20:56:12.079Z,13.10
2022-09-02T20:59:31.284Z,14.70
2022-09-02T21:02:40.645Z,10.20
2022-09-02T21:05:48.848Z,11.00
2022-09-02T21:08:59.790Z,13.30
2022-09-02T21:12:10.442Z,14.00
2022-09-02T21:15:26.310Z,9.70
2022-09-02T21:18:58.782Z,16.20
2022-09-02T21:22:10.534Z,12.10
2022-09-02T21:25:38.183Z,11.10
2022-09-02T21:28:48.721Z,13.80
2022-09-02T21:32:00.967Z,13.70
2022-09-02T21:35:12.128Z,11.80
2022-09-02T21:38:24.896Z,15.20
2022-09-02T21:41:43.034Z,11.40
2022-09-02T21:45:20.225Z,12.30
2022-09-02T21:48:51.824Z,13.10
2022-09-02T21:52:05.071Z,12.10
2022-09-02T21:55:27.013Z,14.80
2022-09-02T21:58:40.844Z,12.70
2022-09-02T22:01:55.881Z,16.00
2022-09-02T22:05:03.058Z,15.40
2022-09-02T22:08:31.722Z,15.40
2022-09-02T22:11:47.842Z,16.40
2022-09-02T22:15:01.933Z,16.20
2022-09-02T22:18:17.673Z,11.70
2022-09-02T22:21:48.607Z,12.90
2022-09-02T22:24:52.149Z,16.10
2022-09-02T22:28:05.478Z,14.70
2022-09-02T22:31:11.209Z,15.90
2022-09-02T22:34:16.340Z,14.40
2022-09-02T22:37:22.407Z,14.50
2022-09-02T22:40:26.219Z,14.90
2022-09-02T22:43:36.082Z,11.70
2022-09-02T22:47:14.102Z,14.00
2022-09-02T22:50:39.452Z,14.40
2022-09-02T22:53:41.233Z,16.10
2022-09-02T22:56:53.977Z,14.60
2022-09-02T23:00:10.758Z,17.20
2022-09-02T23:03:39.283Z,16.70
2022-09-02T23:06:41.044Z,11.50
2022-09-02T23:09:43.412Z,14.40
2022-09-02T23:13:02.601Z,11.80
2022-09-02T23:16:35.380Z,14.30
2022-09-02T23:20:31.406Z,13.40
2022-09-02T23:23:39.461Z,14.90
2022-09-02T23:27:10.010Z,10.70
2022-09-02T23:30:12.200Z,13.00
2022-09-02T23:33:58.092Z,12.60
2022-09-02T23:37:36.514Z,11.30
2022-09-02T23:40:44.272Z,14.20
2022-09-02T23:43:46.184Z,14.80
2022-09-02T23:47:13.004Z,12.30
2022-09-02T23:50:34.568Z,12.70
2022-09-02T23:57:44.584Z,13.90
